sensor_id;sensor_type;location;lat;lon;timestamp;P1;durP1;ratioP1;P2;durP2;ratioP2
66272;SDS011;58450;52.150;4.466;2023-04-08T00:02:19;23.02;;;13.52;;
66272;SDS011;58450;52.150;4.466;2023-04-08T00:04:47;24.35;;;13.65;;
66272;SDS011;58450;52.150;4.466;2023-04-08T00:07:14;23.85;;;13.70;;
66272;SDS011;58450;52.150;4.466;2023-04-08T00:09:42;29.10;;;16.33;;
66272;SDS011;58450;52.150;4.466;2023-04-08T00:12:09;28.13;;;16.05;;
66272;SDS011;58450;52.150;4.466;2023-04-08T00:14:36;27.35;;;15.90;;
66272;SDS011;58450;52.150;4.466;2023-04-08T00:17:06;27.48;;;15.52;;
66272;SDS011;58450;52.150;4.466;2023-04-08T00:19:35;28.70;;;15.98;;
66272;SDS011;58450;52.150;4.466;2023-04-08T00:22:02;28.00;;;15.80;;
66272;SDS011;58450;52.150;4.466;2023-04-08T00:24:30;28.50;;;15.55;;
66272;SDS011;58450;52.150;4.466;2023-04-08T00:26:58;28.42;;;16.33;;
66272;SDS011;58450;52.150;4.466;2023-04-08T00:29:25;27.38;;;15.35;;
66272;SDS011;58450;52.150;4.466;2023-04-08T00:31:53;27.63;;;15.60;;
66272;SDS011;58450;52.150;4.466;2023-04-08T00:34:21;27.83;;;15.80;;
66272;SDS011;58450;52.150;4.466;2023-04-08T00:36:50;30.35;;;16.13;;
66272;SDS011;58450;52.150;4.466;2023-04-08T00:39:17;27.58;;;15.48;;
66272;SDS011;58450;52.150;4.466;2023-04-08T00:41:45;30.58;;;15.90;;
66272;SDS011;58450;52.150;4.466;2023-04-08T00:44:12;29.30;;;16.35;;
66272;SDS011;58450;52.150;4.466;2023-04-08T00:46:40;29.95;;;17.15;;
66272;SDS011;58450;52.150;4.466;2023-04-08T00:49:07;31.83;;;17.45;;
66272;SDS011;58450;52.150;4.466;2023-04-08T00:51:35;29.40;;;16.60;;
66272;SDS011;58450;52.150;4.466;2023-04-08T00:54:04;33.00;;;17.55;;
66272;SDS011;58450;52.150;4.466;2023-04-08T00:56:33;34.30;;;17.60;;
66272;SDS011;58450;52.150;4.466;2023-04-08T00:59:02;31.10;;;16.95;;
66272;SDS011;58450;52.150;4.466;2023-04-08T01:01:32;34.35;;;18.85;;
66272;SDS011;58450;52.150;4.466;2023-04-08T01:04:12;31.08;;;17.50;;
66272;SDS011;58450;52.150;4.466;2023-04-08T01:06:54;34.63;;;18.33;;
66272;SDS011;58450;52.150;4.466;2023-04-08T01:09:31;34.58;;;19.55;;
66272;SDS011;58450;52.150;4.466;2023-04-08T01:12:04;35.90;;;19.13;;
66272;SDS011;58450;52.150;4.466;2023-04-08T01:14:37;35.70;;;18.58;;
66272;SDS011;58450;52.150;4.466;2023-04-08T01:17:10;34.28;;;18.00;;
66272;SDS011;58450;52.150;4.466;2023-04-08T01:19:38;38.38;;;20.65;;
66272;SDS011;58450;52.150;4.466;2023-04-08T01:22:10;38.63;;;20.63;;
66272;SDS011;58450;52.150;4.466;2023-04-08T01:24:47;40.22;;;20.55;;
66272;SDS011;58450;52.150;4.466;2023-04-08T01:27:26;37.97;;;19.33;;
66272;SDS011;58450;52.150;4.466;2023-04-08T01:29:57;36.65;;;19.33;;
66272;SDS011;58450;52.150;4.466;2023-04-08T01:32:27;37.88;;;19.15;;
66272;SDS011;58450;52.150;4.466;2023-04-08T01:34:58;37.10;;;19.40;;
66272;SDS011;58450;52.150;4.466;2023-04-08T01:37:28;31.63;;;16.88;;
66272;SDS011;58450;52.150;4.466;2023-04-08T01:39:58;33.22;;;18.23;;
66272;SDS011;58450;52.150;4.466;2023-04-08T01:42:30;32.65;;;17.30;;
66272;SDS011;58450;52.150;4.466;2023-04-08T01:45:01;35.13;;;18.65;;
66272;SDS011;58450;52.150;4.466;2023-04-08T01:47:32;35.78;;;19.42;;
66272;SDS011;58450;52.150;4.466;2023-04-08T01:50:01;36.50;;;19.80;;
66272;SDS011;58450;52.150;4.466;2023-04-08T01:52:32;34.03;;;17.48;;
66272;SDS011;58450;52.150;4.466;2023-04-08T01:55:03;31.13;;;16.65;;
66272;SDS011;58450;52.150;4.466;2023-04-08T01:57:34;34.75;;;17.60;;
66272;SDS011;58450;52.150;4.466;2023-04-08T02:00:06;30.38;;;17.05;;
66272;SDS011;58450;52.150;4.466;2023-04-08T02:02:37;33.15;;;17.23;;
66272;SDS011;58450;52.150;4.466;2023-04-08T02:05:08;33.28;;;17.67;;
66272;SDS011;58450;52.150;4.466;2023-04-08T02:07:36;34.72;;;18.25;;
66272;SDS011;58450;52.150;4.466;2023-04-08T02:10:04;32.17;;;16.73;;
66272;SDS011;58450;52.150;4.466;2023-04-08T02:12:34;31.92;;;16.42;;
66272;SDS011;58450;52.150;4.466;2023-04-08T02:15:02;34.88;;;17.65;;
66272;SDS011;58450;52.150;4.466;2023-04-08T02:17:31;35.63;;;18.58;;
66272;SDS011;58450;52.150;4.466;2023-04-08T02:20:05;37.35;;;18.77;;
66272;SDS011;58450;52.150;4.466;2023-04-08T02:22:37;37.38;;;19.10;;
66272;SDS011;58450;52.150;4.466;2023-04-08T02:25:12;37.28;;;19.80;;
66272;SDS011;58450;52.150;4.466;2023-04-08T02:27:44;37.78;;;19.42;;
66272;SDS011;58450;52.150;4.466;2023-04-08T02:30:13;36.50;;;17.92;;
66272;SDS011;58450;52.150;4.466;2023-04-08T02:32:42;32.83;;;17.45;;
66272;SDS011;58450;52.150;4.466;2023-04-08T02:35:11;37.47;;;18.90;;
66272;SDS011;58450;52.150;4.466;2023-04-08T02:37:41;35.10;;;18.27;;
66272;SDS011;58450;52.150;4.466;2023-04-08T02:40:22;34.90;;;18.77;;
66272;SDS011;58450;52.150;4.466;2023-04-08T02:42:53;36.55;;;19.73;;
66272;SDS011;58450;52.150;4.466;2023-04-08T02:45:21;37.83;;;19.10;;
66272;SDS011;58450;52.150;4.466;2023-04-08T02:47:53;35.63;;;19.17;;
66272;SDS011;58450;52.150;4.466;2023-04-08T02:50:20;34.55;;;17.95;;
66272;SDS011;58450;52.150;4.466;2023-04-08T02:52:48;33.15;;;18.35;;
66272;SDS011;58450;52.150;4.466;2023-04-08T02:55:15;31.77;;;17.30;;
66272;SDS011;58450;52.150;4.466;2023-04-08T02:57:43;31.63;;;16.75;;
66272;SDS011;58450;52.150;4.466;2023-04-08T03:00:15;32.83;;;17.48;;
66272;SDS011;58450;52.150;4.466;2023-04-08T03:02:43;32.80;;;17.30;;
66272;SDS011;58450;52.150;4.466;2023-04-08T03:05:11;31.85;;;17.02;;
66272;SDS011;58450;52.150;4.466;2023-04-08T03:07:38;34.13;;;17.77;;
66272;SDS011;58450;52.150;4.466;2023-04-08T03:10:06;35.95;;;17.90;;
66272;SDS011;58450;52.150;4.466;2023-04-08T03:12:35;34.38;;;18.33;;
66272;SDS011;58450;52.150;4.466;2023-04-08T03:15:02;40.58;;;19.65;;
66272;SDS011;58450;52.150;4.466;2023-04-08T03:17:32;39.05;;;19.50;;
66272;SDS011;58450;52.150;4.466;2023-04-08T03:20:00;35.42;;;19.42;;
66272;SDS011;58450;52.150;4.466;2023-04-08T03:22:29;35.97;;;18.30;;
66272;SDS011;58450;52.150;4.466;2023-04-08T03:24:56;37.17;;;18.73;;
66272;SDS011;58450;52.150;4.466;2023-04-08T03:27:24;36.83;;;18.88;;
66272;SDS011;58450;52.150;4.466;2023-04-08T03:29:52;37.05;;;18.77;;
66272;SDS011;58450;52.150;4.466;2023-04-08T03:32:19;38.13;;;19.33;;
66272;SDS011;58450;52.150;4.466;2023-04-08T03:34:48;38.45;;;19.80;;
66272;SDS011;58450;52.150;4.466;2023-04-08T03:37:16;35.95;;;20.08;;
66272;SDS011;58450;52.150;4.466;2023-04-08T03:39:43;37.20;;;19.30;;
66272;SDS011;58450;52.150;4.466;2023-04-08T03:42:11;38.83;;;19.98;;
66272;SDS011;58450;52.150;4.466;2023-04-08T03:44:38;37.10;;;19.83;;
66272;SDS011;58450;52.150;4.466;2023-04-08T03:47:06;39.03;;;19.58;;
66272;SDS011;58450;52.150;4.466;2023-04-08T03:49:34;38.97;;;20.10;;
66272;SDS011;58450;52.150;4.466;2023-04-08T03:52:03;39.25;;;20.17;;
66272;SDS011;58450;52.150;4.466;2023-04-08T03:54:31;34.90;;;18.05;;
66272;SDS011;58450;52.150;4.466;2023-04-08T03:56:58;33.67;;;18.00;;
66272;SDS011;58450;52.150;4.466;2023-04-08T03:59:26;37.03;;;18.77;;
66272;SDS011;58450;52.150;4.466;2023-04-08T04:01:53;34.33;;;18.30;;
66272;SDS011;58450;52.150;4.466;2023-04-08T04:04:21;37.50;;;18.98;;
66272;SDS011;58450;52.150;4.466;2023-04-08T04:06:48;38.20;;;20.48;;
66272;SDS011;58450;52.150;4.466;2023-04-08T04:09:17;40.17;;;20.27;;
66272;SDS011;58450;52.150;4.466;2023-04-08T04:11:45;40.08;;;20.13;;
66272;SDS011;58450;52.150;4.466;2023-04-08T04:14:12;36.28;;;18.95;;
66272;SDS011;58450;52.150;4.466;2023-04-08T04:16:40;36.20;;;19.15;;
66272;SDS011;58450;52.150;4.466;2023-04-08T04:19:07;40.72;;;19.92;;
66272;SDS011;58450;52.150;4.466;2023-04-08T04:21:35;36.60;;;19.48;;
66272;SDS011;58450;52.150;4.466;2023-04-08T04:24:03;39.33;;;20.17;;
66272;SDS011;58450;52.150;4.466;2023-04-08T04:26:32;38.65;;;20.65;;
66272;SDS011;58450;52.150;4.466;2023-04-08T04:29:00;38.38;;;20.15;;
66272;SDS011;58450;52.150;4.466;2023-04-08T04:31:27;37.20;;;18.98;;
66272;SDS011;58450;52.150;4.466;2023-04-08T04:33:55;39.20;;;20.02;;
66272;SDS011;58450;52.150;4.466;2023-04-08T04:36:23;46.58;;;22.75;;
66272;SDS011;58450;52.150;4.466;2023-04-08T04:38:50;46.47;;;23.42;;
66272;SDS011;58450;52.150;4.466;2023-04-08T04:41:18;48.38;;;22.55;;
66272;SDS011;58450;52.150;4.466;2023-04-08T04:43:47;45.10;;;22.95;;
66272;SDS011;58450;52.150;4.466;2023-04-08T04:46:15;40.75;;;20.85;;
66272;SDS011;58450;52.150;4.466;2023-04-08T04:48:42;41.13;;;20.38;;
66272;SDS011;58450;52.150;4.466;2023-04-08T04:51:10;40.00;;;20.10;;
66272;SDS011;58450;52.150;4.466;2023-04-08T04:53:37;39.63;;;19.42;;
66272;SDS011;58450;52.150;4.466;2023-04-08T04:56:05;41.42;;;20.67;;
66272;SDS011;58450;52.150;4.466;2023-04-08T04:58:33;39.97;;;20.63;;
66272;SDS011;58450;52.150;4.466;2023-04-08T05:01:02;40.33;;;19.92;;
66272;SDS011;58450;52.150;4.466;2023-04-08T05:03:30;40.10;;;19.67;;
66272;SDS011;58450;52.150;4.466;2023-04-08T05:05:57;39.15;;;20.25;;
66272;SDS011;58450;52.150;4.466;2023-04-08T05:08:25;39.70;;;19.63;;
66272;SDS011;58450;52.150;4.466;2023-04-08T05:10:53;40.08;;;19.40;;
66272;SDS011;58450;52.150;4.466;2023-04-08T05:13:21;42.50;;;20.95;;
66272;SDS011;58450;52.150;4.466;2023-04-08T05:15:48;40.45;;;20.08;;
66272;SDS011;58450;52.150;4.466;2023-04-08T05:18:17;38.88;;;20.55;;
66272;SDS011;58450;52.150;4.466;2023-04-08T05:20:45;41.40;;;20.27;;
66272;SDS011;58450;52.150;4.466;2023-04-08T05:23:12;44.28;;;22.35;;
66272;SDS011;58450;52.150;4.466;2023-04-08T05:25:40;44.03;;;21.17;;
66272;SDS011;58450;52.150;4.466;2023-04-08T05:28:07;45.22;;;22.02;;
66272;SDS011;58450;52.150;4.466;2023-04-08T05:30:35;45.03;;;22.48;;
66272;SDS011;58450;52.150;4.466;2023-04-08T05:33:03;45.40;;;21.73;;
66272;SDS011;58450;52.150;4.466;2023-04-08T05:35:31;43.58;;;22.27;;
66272;SDS011;58450;52.150;4.466;2023-04-08T05:37:59;43.30;;;21.40;;
66272;SDS011;58450;52.150;4.466;2023-04-08T05:40:26;46.80;;;22.52;;
66272;SDS011;58450;52.150;4.466;2023-04-08T05:42:54;43.67;;;21.88;;
66272;SDS011;58450;52.150;4.466;2023-04-08T05:45:21;49.80;;;23.75;;
66272;SDS011;58450;52.150;4.466;2023-04-08T05:47:49;50.05;;;23.15;;
66272;SDS011;58450;52.150;4.466;2023-04-08T05:50:16;51.55;;;24.27;;
66272;SDS011;58450;52.150;4.466;2023-04-08T05:52:45;53.00;;;23.60;;
66272;SDS011;58450;52.150;4.466;2023-04-08T05:55:13;50.05;;;23.92;;
66272;SDS011;58450;52.150;4.466;2023-04-08T05:57:41;51.17;;;24.38;;
66272;SDS011;58450;52.150;4.466;2023-04-08T06:00:09;47.72;;;22.85;;
66272;SDS011;58450;52.150;4.466;2023-04-08T06:02:37;47.83;;;23.70;;
66272;SDS011;58450;52.150;4.466;2023-04-08T06:05:05;50.17;;;24.33;;
66272;SDS011;58450;52.150;4.466;2023-04-08T06:07:33;47.40;;;22.98;;
66272;SDS011;58450;52.150;4.466;2023-04-08T06:10:02;49.85;;;23.83;;
66272;SDS011;58450;52.150;4.466;2023-04-08T06:12:33;47.80;;;24.13;;
66272;SDS011;58450;52.150;4.466;2023-04-08T06:15:03;48.13;;;24.40;;
66272;SDS011;58450;52.150;4.466;2023-04-08T06:17:34;47.97;;;25.08;;
66272;SDS011;58450;52.150;4.466;2023-04-08T06:20:02;44.22;;;22.77;;
66272;SDS011;58450;52.150;4.466;2023-04-08T06:22:31;49.28;;;24.73;;
66272;SDS011;58450;52.150;4.466;2023-04-08T06:24:58;47.22;;;24.45;;
66272;SDS011;58450;52.150;4.466;2023-04-08T06:27:27;42.92;;;23.33;;
66272;SDS011;58450;52.150;4.466;2023-04-08T06:29:55;44.25;;;24.40;;
66272;SDS011;58450;52.150;4.466;2023-04-08T06:32:22;42.60;;;22.95;;
66272;SDS011;58450;52.150;4.466;2023-04-08T06:34:50;39.63;;;22.40;;
66272;SDS011;58450;52.150;4.466;2023-04-08T06:37:17;38.85;;;22.17;;
66272;SDS011;58450;52.150;4.466;2023-04-08T06:39:45;36.30;;;22.17;;
66272;SDS011;58450;52.150;4.466;2023-04-08T06:42:12;37.05;;;21.83;;
66272;SDS011;58450;52.150;4.466;2023-04-08T06:44:41;39.47;;;22.80;;
66272;SDS011;58450;52.150;4.466;2023-04-08T06:47:09;34.67;;;20.92;;
66272;SDS011;58450;52.150;4.466;2023-04-08T06:49:36;33.90;;;20.08;;
66272;SDS011;58450;52.150;4.466;2023-04-08T06:52:04;34.42;;;21.23;;
66272;SDS011;58450;52.150;4.466;2023-04-08T06:54:32;34.90;;;20.77;;
66272;SDS011;58450;52.150;4.466;2023-04-08T06:57:00;33.45;;;20.85;;
66272;SDS011;58450;52.150;4.466;2023-04-08T06:59:28;33.13;;;19.95;;
66272;SDS011;58450;52.150;4.466;2023-04-08T07:01:57;32.00;;;19.13;;
66272;SDS011;58450;52.150;4.466;2023-04-08T07:04:25;31.95;;;18.98;;
66272;SDS011;58450;52.150;4.466;2023-04-08T07:06:52;29.13;;;17.35;;
66272;SDS011;58450;52.150;4.466;2023-04-08T07:09:20;31.33;;;19.00;;
66272;SDS011;58450;52.150;4.466;2023-04-08T07:11:47;29.83;;;19.33;;
66272;SDS011;58450;52.150;4.466;2023-04-08T07:14:15;27.80;;;17.52;;
66272;SDS011;58450;52.150;4.466;2023-04-08T07:16:43;25.17;;;16.17;;
66272;SDS011;58450;52.150;4.466;2023-04-08T07:19:12;23.95;;;15.93;;
66272;SDS011;58450;52.150;4.466;2023-04-08T07:21:40;21.95;;;14.57;;
66272;SDS011;58450;52.150;4.466;2023-04-08T07:24:07;22.35;;;14.27;;
66272;SDS011;58450;52.150;4.466;2023-04-08T07:26:35;18.60;;;12.88;;
66272;SDS011;58450;52.150;4.466;2023-04-08T07:29:04;19.25;;;13.15;;
66272;SDS011;58450;52.150;4.466;2023-04-08T07:31:31;18.52;;;12.48;;
66272;SDS011;58450;52.150;4.466;2023-04-08T07:33:59;17.10;;;12.43;;
66272;SDS011;58450;52.150;4.466;2023-04-08T07:36:28;17.48;;;12.25;;
66272;SDS011;58450;52.150;4.466;2023-04-08T07:38:55;16.98;;;11.95;;
66272;SDS011;58450;52.150;4.466;2023-04-08T07:41:22;17.15;;;12.27;;
66272;SDS011;58450;52.150;4.466;2023-04-08T07:43:50;16.70;;;11.55;;
66272;SDS011;58450;52.150;4.466;2023-04-08T07:46:17;16.35;;;11.63;;
66272;SDS011;58450;52.150;4.466;2023-04-08T07:48:45;14.88;;;10.95;;
66272;SDS011;58450;52.150;4.466;2023-04-08T07:51:13;14.77;;;10.93;;
66272;SDS011;58450;52.150;4.466;2023-04-08T07:53:42;14.05;;;10.80;;
66272;SDS011;58450;52.150;4.466;2023-04-08T07:56:10;15.25;;;11.35;;
66272;SDS011;58450;52.150;4.466;2023-04-08T07:58:38;15.40;;;11.05;;
66272;SDS011;58450;52.150;4.466;2023-04-08T08:01:13;13.52;;;10.40;;
66272;SDS011;58450;52.150;4.466;2023-04-08T08:03:45;13.95;;;10.55;;
66272;SDS011;58450;52.150;4.466;2023-04-08T08:06:13;14.88;;;11.43;;
66272;SDS011;58450;52.150;4.466;2023-04-08T08:08:42;15.10;;;11.00;;
66272;SDS011;58450;52.150;4.466;2023-04-08T08:11:10;16.75;;;11.85;;
66272;SDS011;58450;52.150;4.466;2023-04-08T08:13:37;14.60;;;10.45;;
66272;SDS011;58450;52.150;4.466;2023-04-08T08:16:05;14.52;;;10.80;;
66272;SDS011;58450;52.150;4.466;2023-04-08T08:18:36;13.85;;;10.40;;
66272;SDS011;58450;52.150;4.466;2023-04-08T08:21:04;13.93;;;10.48;;
66272;SDS011;58450;52.150;4.466;2023-04-08T08:23:32;15.70;;;11.88;;
66272;SDS011;58450;52.150;4.466;2023-04-08T08:26:02;14.00;;;10.48;;
66272;SDS011;58450;52.150;4.466;2023-04-08T08:28:32;14.15;;;10.82;;
66272;SDS011;58450;52.150;4.466;2023-04-08T08:30:59;13.55;;;9.90;;
66272;SDS011;58450;52.150;4.466;2023-04-08T08:33:28;13.05;;;9.80;;
66272;SDS011;58450;52.150;4.466;2023-04-08T08:35:55;11.13;;;8.82;;
66272;SDS011;58450;52.150;4.466;2023-04-08T08:38:24;11.30;;;8.52;;
66272;SDS011;58450;52.150;4.466;2023-04-08T08:40:52;9.98;;;8.13;;
66272;SDS011;58450;52.150;4.466;2023-04-08T08:43:22;10.20;;;7.60;;
66272;SDS011;58450;52.150;4.466;2023-04-08T08:45:50;9.55;;;7.55;;
66272;SDS011;58450;52.150;4.466;2023-04-08T08:48:18;8.90;;;7.30;;
66272;SDS011;58450;52.150;4.466;2023-04-08T08:50:46;9.40;;;7.20;;
66272;SDS011;58450;52.150;4.466;2023-04-08T08:53:14;11.60;;;7.93;;
66272;SDS011;58450;52.150;4.466;2023-04-08T08:55:41;9.77;;;7.38;;
66272;SDS011;58450;52.150;4.466;2023-04-08T08:58:09;10.10;;;7.88;;
66272;SDS011;58450;52.150;4.466;2023-04-08T09:00:39;10.50;;;7.63;;
66272;SDS011;58450;52.150;4.466;2023-04-08T09:03:12;9.55;;;7.25;;
66272;SDS011;58450;52.150;4.466;2023-04-08T09:08:23;9.00;;;6.72;;
66272;SDS011;58450;52.150;4.466;2023-04-08T09:11:09;8.68;;;7.07;;
66272;SDS011;58450;52.150;4.466;2023-04-08T09:13:38;9.75;;;7.72;;
66272;SDS011;58450;52.150;4.466;2023-04-08T09:16:08;9.45;;;7.47;;
66272;SDS011;58450;52.150;4.466;2023-04-08T09:18:37;10.07;;;7.22;;
66272;SDS011;58450;52.150;4.466;2023-04-08T09:21:09;9.15;;;7.03;;
66272;SDS011;58450;52.150;4.466;2023-04-08T09:23:39;9.48;;;7.53;;
66272;SDS011;58450;52.150;4.466;2023-04-08T09:26:09;9.65;;;6.88;;
66272;SDS011;58450;52.150;4.466;2023-04-08T09:28:39;9.63;;;7.32;;
66272;SDS011;58450;52.150;4.466;2023-04-08T09:33:58;10.10;;;6.97;;
66272;SDS011;58450;52.150;4.466;2023-04-08T09:36:27;10.07;;;7.15;;
66272;SDS011;58450;52.150;4.466;2023-04-08T09:38:55;7.97;;;5.97;;
66272;SDS011;58450;52.150;4.466;2023-04-08T09:41:23;9.13;;;6.40;;
66272;SDS011;58450;52.150;4.466;2023-04-08T09:43:55;10.50;;;7.75;;
66272;SDS011;58450;52.150;4.466;2023-04-08T09:46:25;9.70;;;7.40;;
66272;SDS011;58450;52.150;4.466;2023-04-08T09:49:00;10.07;;;7.55;;
66272;SDS011;58450;52.150;4.466;2023-04-08T09:51:35;9.80;;;7.75;;
66272;SDS011;58450;52.150;4.466;2023-04-08T09:54:22;9.20;;;6.80;;
66272;SDS011;58450;52.150;4.466;2023-04-08T09:57:04;10.75;;;6.63;;
66272;SDS011;58450;52.150;4.466;2023-04-08T09:59:41;9.40;;;6.47;;
66272;SDS011;58450;52.150;4.466;2023-04-08T10:02:21;9.02;;;6.80;;
66272;SDS011;58450;52.150;4.466;2023-04-08T10:04:56;8.30;;;6.45;;
66272;SDS011;58450;52.150;4.466;2023-04-08T10:07:28;9.90;;;6.70;;
66272;SDS011;58450;52.150;4.466;2023-04-08T10:09:56;9.85;;;6.72;;
66272;SDS011;58450;52.150;4.466;2023-04-08T10:12:24;9.15;;;6.78;;
66272;SDS011;58450;52.150;4.466;2023-04-08T10:17:49;9.02;;;6.45;;
66272;SDS011;58450;52.150;4.466;2023-04-08T10:23:11;8.45;;;5.75;;
66272;SDS011;58450;52.150;4.466;2023-04-08T10:25:40;7.47;;;5.22;;
66272;SDS011;58450;52.150;4.466;2023-04-08T10:28:24;7.15;;;4.85;;
66272;SDS011;58450;52.150;4.466;2023-04-08T10:30:53;6.07;;;4.60;;
66272;SDS011;58450;52.150;4.466;2023-04-08T10:33:23;7.53;;;4.35;;
66272;SDS011;58450;52.150;4.466;2023-04-08T10:35:59;6.32;;;4.25;;
66272;SDS011;58450;52.150;4.466;2023-04-08T10:38:36;6.70;;;4.30;;
66272;SDS011;58450;52.150;4.466;2023-04-08T10:41:04;6.07;;;4.13;;
66272;SDS011;58450;52.150;4.466;2023-04-08T10:43:32;5.93;;;4.22;;
66272;SDS011;58450;52.150;4.466;2023-04-08T10:46:00;6.82;;;4.32;;
66272;SDS011;58450;52.150;4.466;2023-04-08T10:48:30;6.15;;;4.57;;
66272;SDS011;58450;52.150;4.466;2023-04-08T10:50:59;6.93;;;4.93;;
66272;SDS011;58450;52.150;4.466;2023-04-08T10:53:29;7.40;;;5.18;;
66272;SDS011;58450;52.150;4.466;2023-04-08T10:56:04;7.28;;;4.93;;
66272;SDS011;58450;52.150;4.466;2023-04-08T10:58:34;6.78;;;4.90;;
66272;SDS011;58450;52.150;4.466;2023-04-08T11:01:02;6.53;;;4.75;;
66272;SDS011;58450;52.150;4.466;2023-04-08T11:03:33;6.63;;;4.70;;
66272;SDS011;58450;52.150;4.466;2023-04-08T11:06:02;7.75;;;4.88;;
66272;SDS011;58450;52.150;4.466;2023-04-08T11:08:30;7.32;;;5.00;;
66272;SDS011;58450;52.150;4.466;2023-04-08T11:11:00;6.60;;;4.63;;
66272;SDS011;58450;52.150;4.466;2023-04-08T11:13:28;7.13;;;4.75;;
66272;SDS011;58450;52.150;4.466;2023-04-08T11:15:57;7.75;;;5.28;;
66272;SDS011;58450;52.150;4.466;2023-04-08T11:18:27;7.50;;;4.90;;
66272;SDS011;58450;52.150;4.466;2023-04-08T11:20:56;9.32;;;4.70;;
66272;SDS011;58450;52.150;4.466;2023-04-08T11:23:24;6.03;;;4.20;;
66272;SDS011;58450;52.150;4.466;2023-04-08T11:25:52;6.28;;;4.20;;
66272;SDS011;58450;52.150;4.466;2023-04-08T11:28:20;7.00;;;4.15;;
66272;SDS011;58450;52.150;4.466;2023-04-08T11:30:49;7.18;;;4.28;;
66272;SDS011;58450;52.150;4.466;2023-04-08T11:33:18;7.10;;;4.05;;
66272;SDS011;58450;52.150;4.466;2023-04-08T11:35:45;4.90;;;3.40;;
66272;SDS011;58450;52.150;4.466;2023-04-08T11:38:20;6.30;;;3.78;;
66272;SDS011;58450;52.150;4.466;2023-04-08T11:40:52;5.72;;;3.60;;
66272;SDS011;58450;52.150;4.466;2023-04-08T11:43:20;5.75;;;3.45;;
66272;SDS011;58450;52.150;4.466;2023-04-08T11:45:48;5.07;;;3.55;;
66272;SDS011;58450;52.150;4.466;2023-04-08T11:48:16;6.47;;;3.70;;
66272;SDS011;58450;52.150;4.466;2023-04-08T11:50:44;6.00;;;3.55;;
66272;SDS011;58450;52.150;4.466;2023-04-08T11:53:19;6.47;;;3.03;;
66272;SDS011;58450;52.150;4.466;2023-04-08T11:55:48;5.43;;;3.42;;
66272;SDS011;58450;52.150;4.466;2023-04-08T11:58:15;5.22;;;3.53;;
66272;SDS011;58450;52.150;4.466;2023-04-08T12:00:43;5.38;;;3.15;;
66272;SDS011;58450;52.150;4.466;2023-04-08T12:03:11;5.65;;;3.60;;
66272;SDS011;58450;52.150;4.466;2023-04-08T12:05:39;4.95;;;3.30;;
66272;SDS011;58450;52.150;4.466;2023-04-08T12:08:07;4.82;;;3.20;;
66272;SDS011;58450;52.150;4.466;2023-04-08T12:10:36;5.15;;;3.05;;
66272;SDS011;58450;52.150;4.466;2023-04-08T12:13:03;4.68;;;2.95;;
66272;SDS011;58450;52.150;4.466;2023-04-08T12:15:31;7.15;;;4.10;;
66272;SDS011;58450;52.150;4.466;2023-04-08T12:17:59;5.10;;;3.50;;
66272;SDS011;58450;52.150;4.466;2023-04-08T12:20:26;4.32;;;3.10;;
66272;SDS011;58450;52.150;4.466;2023-04-08T12:22:53;4.22;;;2.80;;
66272;SDS011;58450;52.150;4.466;2023-04-08T12:25:21;5.35;;;3.22;;
66272;SDS011;58450;52.150;4.466;2023-04-08T12:27:50;5.40;;;3.30;;
66272;SDS011;58450;52.150;4.466;2023-04-08T12:30:17;5.38;;;3.55;;
66272;SDS011;58450;52.150;4.466;2023-04-08T12:32:45;5.28;;;3.22;;
66272;SDS011;58450;52.150;4.466;2023-04-08T12:35:13;5.07;;;3.40;;
66272;SDS011;58450;52.150;4.466;2023-04-08T12:37:41;4.95;;;3.40;;
66272;SDS011;58450;52.150;4.466;2023-04-08T12:40:08;5.20;;;3.42;;
66272;SDS011;58450;52.150;4.466;2023-04-08T12:42:36;5.95;;;3.72;;
66272;SDS011;58450;52.150;4.466;2023-04-08T12:45:06;5.22;;;3.35;;
66272;SDS011;58450;52.150;4.466;2023-04-08T12:47:34;6.13;;;3.85;;
66272;SDS011;58450;52.150;4.466;2023-04-08T12:50:02;5.93;;;3.72;;
66272;SDS011;58450;52.150;4.466;2023-04-08T12:52:30;6.13;;;3.70;;
66272;SDS011;58450;52.150;4.466;2023-04-08T12:54:57;5.63;;;3.20;;
66272;SDS011;58450;52.150;4.466;2023-04-08T12:57:25;5.63;;;3.80;;
66272;SDS011;58450;52.150;4.466;2023-04-08T12:59:53;6.00;;;3.30;;
66272;SDS011;58450;52.150;4.466;2023-04-08T13:02:22;5.20;;;3.70;;
66272;SDS011;58450;52.150;4.466;2023-04-08T13:04:51;5.28;;;3.42;;
66272;SDS011;58450;52.150;4.466;2023-04-08T13:07:20;6.45;;;3.78;;
66272;SDS011;58450;52.150;4.466;2023-04-08T13:09:48;5.97;;;3.85;;
66272;SDS011;58450;52.150;4.466;2023-04-08T13:12:15;5.30;;;3.40;;
66272;SDS011;58450;52.150;4.466;2023-04-08T13:14:43;5.80;;;3.60;;
66272;SDS011;58450;52.150;4.466;2023-04-08T13:17:11;5.75;;;4.00;;
66272;SDS011;58450;52.150;4.466;2023-04-08T13:19:39;6.07;;;3.72;;
66272;SDS011;58450;52.150;4.466;2023-04-08T13:22:07;5.00;;;3.25;;
66272;SDS011;58450;52.150;4.466;2023-04-08T13:24:34;5.75;;;3.30;;
66272;SDS011;58450;52.150;4.466;2023-04-08T13:27:02;7.40;;;4.35;;
66272;SDS011;58450;52.150;4.466;2023-04-08T13:29:29;5.57;;;3.78;;
66272;SDS011;58450;52.150;4.466;2023-04-08T13:31:57;6.20;;;3.92;;
66272;SDS011;58450;52.150;4.466;2023-04-08T13:34:26;6.20;;;4.32;;
66272;SDS011;58450;52.150;4.466;2023-04-08T13:36:55;5.60;;;3.53;;
66272;SDS011;58450;52.150;4.466;2023-04-08T13:39:22;5.03;;;3.28;;
66272;SDS011;58450;52.150;4.466;2023-04-08T13:41:49;6.30;;;4.05;;
66272;SDS011;58450;52.150;4.466;2023-04-08T13:44:17;4.50;;;3.05;;
66272;SDS011;58450;52.150;4.466;2023-04-08T13:46:44;5.05;;;3.38;;
66272;SDS011;58450;52.150;4.466;2023-04-08T13:49:12;5.18;;;3.53;;
66272;SDS011;58450;52.150;4.466;2023-04-08T13:51:40;6.03;;;3.72;;
66272;SDS011;58450;52.150;4.466;2023-04-08T13:54:09;5.25;;;3.30;;
66272;SDS011;58450;52.150;4.466;2023-04-08T13:56:37;4.20;;;3.08;;
66272;SDS011;58450;52.150;4.466;2023-04-08T13:59:04;5.30;;;3.50;;
66272;SDS011;58450;52.150;4.466;2023-04-08T14:01:32;5.05;;;3.50;;
66272;SDS011;58450;52.150;4.466;2023-04-08T14:03:59;7.00;;;4.00;;
66272;SDS011;58450;52.150;4.466;2023-04-08T14:06:26;4.55;;;3.10;;
66272;SDS011;58450;52.150;4.466;2023-04-08T14:08:54;5.63;;;3.20;;
66272;SDS011;58450;52.150;4.466;2023-04-08T14:11:23;5.88;;;3.72;;
66272;SDS011;58450;52.150;4.466;2023-04-08T14:13:50;5.63;;;3.60;;
66272;SDS011;58450;52.150;4.466;2023-04-08T14:16:18;5.45;;;3.65;;
66272;SDS011;58450;52.150;4.466;2023-04-08T14:18:46;5.75;;;3.50;;
66272;SDS011;58450;52.150;4.466;2023-04-08T14:21:13;7.15;;;3.80;;
66272;SDS011;58450;52.150;4.466;2023-04-08T14:23:42;5.57;;;3.42;;
66272;SDS011;58450;52.150;4.466;2023-04-08T14:26:10;6.00;;;3.72;;
66272;SDS011;58450;52.150;4.466;2023-04-08T14:28:39;5.82;;;3.47;;
66272;SDS011;58450;52.150;4.466;2023-04-08T14:31:06;5.22;;;3.15;;
66272;SDS011;58450;52.150;4.466;2023-04-08T14:33:33;5.50;;;3.20;;
66272;SDS011;58450;52.150;4.466;2023-04-08T14:36:01;5.85;;;3.30;;
66272;SDS011;58450;52.150;4.466;2023-04-08T14:38:29;4.90;;;3.08;;
66272;SDS011;58450;52.150;4.466;2023-04-08T14:40:56;6.57;;;3.42;;
66272;SDS011;58450;52.150;4.466;2023-04-08T14:43:24;4.97;;;3.38;;
66272;SDS011;58450;52.150;4.466;2023-04-08T14:45:52;6.53;;;3.65;;
66272;SDS011;58450;52.150;4.466;2023-04-08T14:48:20;5.82;;;3.30;;
66272;SDS011;58450;52.150;4.466;2023-04-08T14:50:50;5.22;;;3.38;;
66272;SDS011;58450;52.150;4.466;2023-04-08T14:53:18;6.05;;;3.78;;